sensor_id;sensor_type;location;lat;lon;timestamp;temperature;humidity
25923;DHT22;13725;51.170;4.442;2023-03-19T00:00:00;11.90;99.90
25923;DHT22;13725;51.170;4.442;2023-03-19T00:02:26;12.00;99.90
25923;DHT22;13725;51.170;4.442;2023-03-19T00:04:51;12.00;99.90
25923;DHT22;13725;51.170;4.442;2023-03-19T00:07:17;12.00;99.90
25923;DHT22;13725;51.170;4.442;2023-03-19T00:09:43;12.00;99.90
25923;DHT22;13725;51.170;4.442;2023-03-19T00:12:10;11.90;99.90
25923;DHT22;13725;51.170;4.442;2023-03-19T00:14:37;12.00;99.90
25923;DHT22;13725;51.170;4.442;2023-03-19T00:17:03;11.90;99.90
25923;DHT22;13725;51.170;4.442;2023-03-19T00:19:29;11.90;99.90
25923;DHT22;13725;51.170;4.442;2023-03-19T00:21:54;11.90;99.90
25923;DHT22;13725;51.170;4.442;2023-03-19T00:24:21;11.80;99.90
25923;DHT22;13725;51.170;4.442;2023-03-19T00:26:47;11.80;99.90
25923;DHT22;13725;51.170;4.442;2023-03-19T00:29:13;11.70;99.90
25923;DHT22;13725;51.170;4.442;2023-03-19T00:31:39;11.70;99.90
25923;DHT22;13725;51.170;4.442;2023-03-19T00:34:06;11.60;99.90
25923;DHT22;13725;51.170;4.442;2023-03-19T00:36:34;11.50;99.90
25923;DHT22;13725;51.170;4.442;2023-03-19T00:38:59;11.60;99.90
25923;DHT22;13725;51.170;4.442;2023-03-19T00:41:25;11.60;99.90
25923;DHT22;13725;51.170;4.442;2023-03-19T00:43:56;11.60;99.90
25923;DHT22;13725;51.170;4.442;2023-03-19T00:46:23;11.60;99.90
25923;DHT22;13725;51.170;4.442;2023-03-19T00:48:49;11.60;99.90
25923;DHT22;13725;51.170;4.442;2023-03-19T00:51:18;11.60;99.90
25923;DHT22;13725;51.170;4.442;2023-03-19T00:53:44;11.50;99.90
25923;DHT22;13725;51.170;4.442;2023-03-19T00:56:12;11.40;99.90
25923;DHT22;13725;51.170;4.442;2023-03-19T00:58:38;11.30;99.90
25923;DHT22;13725;51.170;4.442;2023-03-19T01:01:09;11.30;99.90
25923;DHT22;13725;51.170;4.442;2023-03-19T01:03:35;11.40;99.90
25923;DHT22;13725;51.170;4.442;2023-03-19T01:06:04;11.40;99.90
25923;DHT22;13725;51.170;4.442;2023-03-19T01:08:30;11.40;99.90
25923;DHT22;13725;51.170;4.442;2023-03-19T01:11:03;11.30;99.90
25923;DHT22;13725;51.170;4.442;2023-03-19T01:13:29;11.40;99.90
25923;DHT22;13725;51.170;4.442;2023-03-19T01:15:55;11.30;99.90
25923;DHT22;13725;51.170;4.442;2023-03-19T01:18:21;11.30;99.90
25923;DHT22;13725;51.170;4.442;2023-03-19T01:20:46;11.30;99.90
25923;DHT22;13725;51.170;4.442;2023-03-19T01:23:12;11.30;99.90
25923;DHT22;13725;51.170;4.442;2023-03-19T01:25:38;11.20;99.90
25923;DHT22;13725;51.170;4.442;2023-03-19T01:28:04;11.20;99.90
25923;DHT22;13725;51.170;4.442;2023-03-19T01:30:32;11.10;99.90
25923;DHT22;13725;51.170;4.442;2023-03-19T01:33:04;11.10;99.90
25923;DHT22;13725;51.170;4.442;2023-03-19T01:35:35;11.10;99.90
25923;DHT22;13725;51.170;4.442;2023-03-19T01:38:02;11.00;99.90
25923;DHT22;13725;51.170;4.442;2023-03-19T01:40:28;11.00;99.90
25923;DHT22;13725;51.170;4.442;2023-03-19T01:43:18;11.00;99.90
25923;DHT22;13725;51.170;4.442;2023-03-19T01:46:34;11.00;99.90
25923;DHT22;13725;51.170;4.442;2023-03-19T01:49:29;11.20;99.90
25923;DHT22;13725;51.170;4.442;2023-03-19T01:52:11;11.20;99.90
25923;DHT22;13725;51.170;4.442;2023-03-19T01:55:02;11.20;99.90
25923;DHT22;13725;51.170;4.442;2023-03-19T01:57:46;11.10;99.90
25923;DHT22;13725;51.170;4.442;2023-03-19T02:00:34;11.40;99.90
25923;DHT22;13725;51.170;4.442;2023-03-19T02:03:01;11.20;99.90
25923;DHT22;13725;51.170;4.442;2023-03-19T02:05:48;11.20;99.90
25923;DHT22;13725;51.170;4.442;2023-03-19T02:08:17;11.10;99.90
25923;DHT22;13725;51.170;4.442;2023-03-19T02:10:45;11.10;99.90
25923;DHT22;13725;51.170;4.442;2023-03-19T02:13:13;11.00;99.90
25923;DHT22;13725;51.170;4.442;2023-03-19T02:15:40;11.00;99.90
25923;DHT22;13725;51.170;4.442;2023-03-19T02:18:06;11.10;99.90
25923;DHT22;13725;51.170;4.442;2023-03-19T02:26:18;11.00;99.90
25923;DHT22;13725;51.170;4.442;2023-03-19T02:28:49;11.00;99.90
25923;DHT22;13725;51.170;4.442;2023-03-19T02:31:20;11.00;99.90
25923;DHT22;13725;51.170;4.442;2023-03-19T02:36:45;10.80;99.90
25923;DHT22;13725;51.170;4.442;2023-03-19T02:39:21;10.80;99.90
25923;DHT22;13725;51.170;4.442;2023-03-19T02:41:50;10.60;99.90
25923;DHT22;13725;51.170;4.442;2023-03-19T02:44:17;10.60;99.90
25923;DHT22;13725;51.170;4.442;2023-03-19T02:46:44;10.50;99.90
25923;DHT22;13725;51.170;4.442;2023-03-19T02:49:10;10.60;99.90
25923;DHT22;13725;51.170;4.442;2023-03-19T02:51:37;10.50;99.90
25923;DHT22;13725;51.170;4.442;2023-03-19T02:54:04;10.50;99.90
25923;DHT22;13725;51.170;4.442;2023-03-19T02:56:30;10.40;99.90
25923;DHT22;13725;51.170;4.442;2023-03-19T02:58:56;10.30;99.90
25923;DHT22;13725;51.170;4.442;2023-03-19T03:01:22;10.30;99.90
25923;DHT22;13725;51.170;4.442;2023-03-19T03:03:47;10.30;99.90
25923;DHT22;13725;51.170;4.442;2023-03-19T03:06:13;10.30;99.90
25923;DHT22;13725;51.170;4.442;2023-03-19T03:08:40;10.10;99.90
25923;DHT22;13725;51.170;4.442;2023-03-19T03:11:07;10.10;99.90
25923;DHT22;13725;51.170;4.442;2023-03-19T03:13:32;10.10;99.90
25923;DHT22;13725;51.170;4.442;2023-03-19T03:15:58;10.10;99.90
25923;DHT22;13725;51.170;4.442;2023-03-19T03:18:24;9.90;99.90
25923;DHT22;13725;51.170;4.442;2023-03-19T03:20:51;9.90;99.90
25923;DHT22;13725;51.170;4.442;2023-03-19T03:23:18;9.90;99.90
25923;DHT22;13725;51.170;4.442;2023-03-19T03:25:48;9.90;99.90
25923;DHT22;13725;51.170;4.442;2023-03-19T03:28:14;9.80;99.90
25923;DHT22;13725;51.170;4.442;2023-03-19T03:30:42;9.80;99.90
25923;DHT22;13725;51.170;4.442;2023-03-19T03:33:08;9.70;99.90
25923;DHT22;13725;51.170;4.442;2023-03-19T03:35:34;9.60;99.90
25923;DHT22;13725;51.170;4.442;2023-03-19T03:38:00;9.60;99.90
25923;DHT22;13725;51.170;4.442;2023-03-19T03:40:27;9.50;99.90
25923;DHT22;13725;51.170;4.442;2023-03-19T03:42:54;9.50;99.90
25923;DHT22;13725;51.170;4.442;2023-03-19T03:45:20;9.40;99.90
25923;DHT22;13725;51.170;4.442;2023-03-19T03:47:45;9.40;99.90
25923;DHT22;13725;51.170;4.442;2023-03-19T03:50:12;9.30;99.90
25923;DHT22;13725;51.170;4.442;2023-03-19T03:52:39;9.40;99.90
25923;DHT22;13725;51.170;4.442;2023-03-19T03:55:07;9.40;99.90
25923;DHT22;13725;51.170;4.442;2023-03-19T03:57:33;9.40;99.90
25923;DHT22;13725;51.170;4.442;2023-03-19T03:59:59;9.40;99.90
25923;DHT22;13725;51.170;4.442;2023-03-19T04:02:25;9.40;99.90
25923;DHT22;13725;51.170;4.442;2023-03-19T04:04:52;9.40;99.90
25923;DHT22;13725;51.170;4.442;2023-03-19T04:07:18;9.50;99.90
25923;DHT22;13725;51.170;4.442;2023-03-19T04:09:47;9.40;99.90
25923;DHT22;13725;51.170;4.442;2023-03-19T04:12:13;9.40;99.90
25923;DHT22;13725;51.170;4.442;2023-03-19T04:14:41;9.40;99.90
25923;DHT22;13725;51.170;4.442;2023-03-19T04:17:08;9.30;99.90
25923;DHT22;13725;51.170;4.442;2023-03-19T04:19:34;9.40;99.90
25923;DHT22;13725;51.170;4.442;2023-03-19T04:22:00;9.40;99.90
25923;DHT22;13725;51.170;4.442;2023-03-19T04:24:28;9.30;99.90
25923;DHT22;13725;51.170;4.442;2023-03-19T04:26:54;9.40;99.90
25923;DHT22;13725;51.170;4.442;2023-03-19T04:29:20;9.40;99.90
25923;DHT22;13725;51.170;4.442;2023-03-19T04:31:47;9.30;99.90
25923;DHT22;13725;51.170;4.442;2023-03-19T04:34:13;9.30;99.90
25923;DHT22;13725;51.170;4.442;2023-03-19T04:36:39;9.30;99.90
25923;DHT22;13725;51.170;4.442;2023-03-19T04:39:04;9.30;99.90
25923;DHT22;13725;51.170;4.442;2023-03-19T04:41:30;9.30;99.90
25923;DHT22;13725;51.170;4.442;2023-03-19T04:44:15;9.20;99.90
25923;DHT22;13725;51.170;4.442;2023-03-19T04:46:41;9.20;99.90
25923;DHT22;13725;51.170;4.442;2023-03-19T04:49:09;9.20;99.90
25923;DHT22;13725;51.170;4.442;2023-03-19T04:51:35;9.10;99.90
25923;DHT22;13725;51.170;4.442;2023-03-19T04:54:01;9.10;99.90
25923;DHT22;13725;51.170;4.442;2023-03-19T04:56:27;9.10;99.90
25923;DHT22;13725;51.170;4.442;2023-03-19T04:58:53;9.00;99.90
25923;DHT22;13725;51.170;4.442;2023-03-19T05:01:19;9.10;99.90
25923;DHT22;13725;51.170;4.442;2023-03-19T05:04:05;9.00;99.90
25923;DHT22;13725;51.170;4.442;2023-03-19T05:06:34;9.00;99.90
25923;DHT22;13725;51.170;4.442;2023-03-19T05:08:59;8.90;99.90
25923;DHT22;13725;51.170;4.442;2023-03-19T05:11:25;9.00;99.90
25923;DHT22;13725;51.170;4.442;2023-03-19T05:14:00;8.90;99.90
25923;DHT22;13725;51.170;4.442;2023-03-19T05:16:33;8.90;99.90
25923;DHT22;13725;51.170;4.442;2023-03-19T05:19:00;8.90;99.90
25923;DHT22;13725;51.170;4.442;2023-03-19T05:21:26;8.90;99.90
25923;DHT22;13725;51.170;4.442;2023-03-19T05:23:52;8.90;99.90
25923;DHT22;13725;51.170;4.442;2023-03-19T05:26:20;9.00;99.90
25923;DHT22;13725;51.170;4.442;2023-03-19T05:29:14;8.90;99.90
25923;DHT22;13725;51.170;4.442;2023-03-19T05:31:58;8.90;99.90
25923;DHT22;13725;51.170;4.442;2023-03-19T05:34:28;8.90;99.90
25923;DHT22;13725;51.170;4.442;2023-03-19T05:36:54;8.80;99.90
25923;DHT22;13725;51.170;4.442;2023-03-19T05:39:19;8.70;99.90
25923;DHT22;13725;51.170;4.442;2023-03-19T05:41:45;8.70;99.90
25923;DHT22;13725;51.170;4.442;2023-03-19T05:44:16;8.70;99.90
25923;DHT22;13725;51.170;4.442;2023-03-19T05:47:10;8.60;99.90
25923;DHT22;13725;51.170;4.442;2023-03-19T05:49:39;8.60;99.90
25923;DHT22;13725;51.170;4.442;2023-03-19T05:52:05;8.60;99.90
25923;DHT22;13725;51.170;4.442;2023-03-19T05:54:32;8.60;99.90
25923;DHT22;13725;51.170;4.442;2023-03-19T05:57:27;8.60;99.90
25923;DHT22;13725;51.170;4.442;2023-03-19T06:00:06;8.60;99.90
25923;DHT22;13725;51.170;4.442;2023-03-19T06:02:35;8.50;99.90
25923;DHT22;13725;51.170;4.442;2023-03-19T06:05:14;8.50;99.90
25923;DHT22;13725;51.170;4.442;2023-03-19T06:07:41;8.50;99.90
25923;DHT22;13725;51.170;4.442;2023-03-19T06:10:13;8.50;99.90
25923;DHT22;13725;51.170;4.442;2023-03-19T06:12:39;8.60;99.90
25923;DHT22;13725;51.170;4.442;2023-03-19T06:15:05;8.70;99.90
25923;DHT22;13725;51.170;4.442;2023-03-19T06:17:55;8.70;99.90
25923;DHT22;13725;51.170;4.442;2023-03-19T06:20:20;8.90;99.90
25923;DHT22;13725;51.170;4.442;2023-03-19T06:22:47;9.00;99.90
25923;DHT22;13725;51.170;4.442;2023-03-19T06:25:13;9.20;99.90
25923;DHT22;13725;51.170;4.442;2023-03-19T06:27:40;9.50;99.90
25923;DHT22;13725;51.170;4.442;2023-03-19T06:30:18;10.10;99.90
25923;DHT22;13725;51.170;4.442;2023-03-19T06:32:44;10.90;99.90
25923;DHT22;13725;51.170;4.442;2023-03-19T06:35:12;11.00;99.90
25923;DHT22;13725;51.170;4.442;2023-03-19T06:37:38;10.80;99.90
25923;DHT22;13725;51.170;4.442;2023-03-19T06:40:04;10.90;99.90
25923;DHT22;13725;51.170;4.442;2023-03-19T06:42:31;11.40;99.90
25923;DHT22;13725;51.170;4.442;2023-03-19T06:44:57;12.10;99.90
25923;DHT22;13725;51.170;4.442;2023-03-19T06:47:23;12.40;99.90
25923;DHT22;13725;51.170;4.442;2023-03-19T06:49:48;12.30;99.90
25923;DHT22;13725;51.170;4.442;2023-03-19T06:52:14;12.10;99.90
25923;DHT22;13725;51.170;4.442;2023-03-19T06:54:40;11.90;99.90
25923;DHT22;13725;51.170;4.442;2023-03-19T06:57:05;11.70;99.90
25923;DHT22;13725;51.170;4.442;2023-03-19T06:59:31;11.60;99.90
25923;DHT22;13725;51.170;4.442;2023-03-19T07:01:57;11.80;99.90
25923;DHT22;13725;51.170;4.442;2023-03-19T07:04:22;12.50;99.90
25923;DHT22;13725;51.170;4.442;2023-03-19T07:06:48;13.80;99.90
25923;DHT22;13725;51.170;4.442;2023-03-19T07:09:14;15.00;99.90
25923;DHT22;13725;51.170;4.442;2023-03-19T07:11:41;15.80;99.90
25923;DHT22;13725;51.170;4.442;2023-03-19T07:14:06;16.80;99.90
25923;DHT22;13725;51.170;4.442;2023-03-19T07:16:33;17.40;99.90
25923;DHT22;13725;51.170;4.442;2023-03-19T07:18:59;17.10;99.90
25923;DHT22;13725;51.170;4.442;2023-03-19T07:21:25;16.70;99.90
25923;DHT22;13725;51.170;4.442;2023-03-19T07:23:50;16.00;99.90
25923;DHT22;13725;51.170;4.442;2023-03-19T07:26:17;15.40;99.90
25923;DHT22;13725;51.170;4.442;2023-03-19T07:28:43;15.10;99.90
25923;DHT22;13725;51.170;4.442;2023-03-19T07:31:09;15.10;99.90
25923;DHT22;13725;51.170;4.442;2023-03-19T07:33:35;15.90;99.90
25923;DHT22;13725;51.170;4.442;2023-03-19T07:36:00;16.80;99.90
25923;DHT22;13725;51.170;4.442;2023-03-19T07:38:26;16.90;99.90
25923;DHT22;13725;51.170;4.442;2023-03-19T07:40:52;17.00;99.90
25923;DHT22;13725;51.170;4.442;2023-03-19T07:43:18;16.90;99.90
25923;DHT22;13725;51.170;4.442;2023-03-19T07:45:44;16.70;99.90
25923;DHT22;13725;51.170;4.442;2023-03-19T07:48:10;16.90;99.90
25923;DHT22;13725;51.170;4.442;2023-03-19T07:50:36;17.40;99.90
25923;DHT22;13725;51.170;4.442;2023-03-19T07:53:02;18.20;99.90
25923;DHT22;13725;51.170;4.442;2023-03-19T07:55:28;18.50;99.90
25923;DHT22;13725;51.170;4.442;2023-03-19T07:57:53;18.30;99.90
25923;DHT22;13725;51.170;4.442;2023-03-19T08:00:19;18.00;99.90
25923;DHT22;13725;51.170;4.442;2023-03-19T08:02:45;18.40;99.90
25923;DHT22;13725;51.170;4.442;2023-03-19T08:05:11;19.10;99.90
25923;DHT22;13725;51.170;4.442;2023-03-19T08:07:37;19.60;99.90
25923;DHT22;13725;51.170;4.442;2023-03-19T08:10:06;21.10;99.90
25923;DHT22;13725;51.170;4.442;2023-03-19T08:12:32;20.40;99.90
25923;DHT22;13725;51.170;4.442;2023-03-19T08:15:04;19.40;99.90
25923;DHT22;13725;51.170;4.442;2023-03-19T08:17:30;18.30;99.90
25923;DHT22;13725;51.170;4.442;2023-03-19T08:19:59;17.60;99.90
25923;DHT22;13725;51.170;4.442;2023-03-19T08:22:25;16.70;99.90
25923;DHT22;13725;51.170;4.442;2023-03-19T08:24:51;16.10;99.90
25923;DHT22;13725;51.170;4.442;2023-03-19T08:27:16;15.30;99.90
25923;DHT22;13725;51.170;4.442;2023-03-19T08:29:42;14.80;99.90
25923;DHT22;13725;51.170;4.442;2023-03-19T08:32:08;14.70;99.90
25923;DHT22;13725;51.170;4.442;2023-03-19T08:34:34;14.60;99.90
25923;DHT22;13725;51.170;4.442;2023-03-19T08:37:00;14.40;99.90
25923;DHT22;13725;51.170;4.442;2023-03-19T08:39:26;14.20;99.90
25923;DHT22;13725;51.170;4.442;2023-03-19T08:41:51;14.10;99.90
25923;DHT22;13725;51.170;4.442;2023-03-19T08:44:17;14.00;99.90
25923;DHT22;13725;51.170;4.442;2023-03-19T08:46:43;14.10;99.90
25923;DHT22;13725;51.170;4.442;2023-03-19T08:49:08;14.20;99.90
25923;DHT22;13725;51.170;4.442;2023-03-19T08:51:34;14.40;99.90
25923;DHT22;13725;51.170;4.442;2023-03-19T08:54:00;15.00;99.90
25923;DHT22;13725;51.170;4.442;2023-03-19T08:56:26;14.90;99.90
25923;DHT22;13725;51.170;4.442;2023-03-19T08:58:52;15.20;99.90
25923;DHT22;13725;51.170;4.442;2023-03-19T09:01:17;15.40;99.90
25923;DHT22;13725;51.170;4.442;2023-03-19T09:03:43;15.50;99.90
25923;DHT22;13725;51.170;4.442;2023-03-19T09:06:11;15.70;99.90
25923;DHT22;13725;51.170;4.442;2023-03-19T09:08:37;15.80;99.90
25923;DHT22;13725;51.170;4.442;2023-03-19T09:11:03;16.10;99.90
25923;DHT22;13725;51.170;4.442;2023-03-19T09:13:30;16.40;99.90
25923;DHT22;13725;51.170;4.442;2023-03-19T09:15:56;16.70;99.90
25923;DHT22;13725;51.170;4.442;2023-03-19T09:18:21;16.50;99.90
25923;DHT22;13725;51.170;4.442;2023-03-19T09:20:51;16.50;99.90
25923;DHT22;13725;51.170;4.442;2023-03-19T09:23:17;16.80;99.90
25923;DHT22;13725;51.170;4.442;2023-03-19T09:25:43;16.60;99.90
25923;DHT22;13725;51.170;4.442;2023-03-19T09:28:09;17.00;99.90
25923;DHT22;13725;51.170;4.442;2023-03-19T09:30:35;17.40;99.90
25923;DHT22;13725;51.170;4.442;2023-03-19T09:33:00;17.90;99.90
25923;DHT22;13725;51.170;4.442;2023-03-19T09:35:26;18.00;99.90
25923;DHT22;13725;51.170;4.442;2023-03-19T09:37:57;18.30;99.90
25923;DHT22;13725;51.170;4.442;2023-03-19T09:40:29;18.30;99.90
25923;DHT22;13725;51.170;4.442;2023-03-19T09:45:49;17.90;99.90
25923;DHT22;13725;51.170;4.442;2023-03-19T09:48:39;17.70;99.90
25923;DHT22;13725;51.170;4.442;2023-03-19T09:51:15;17.60;99.90
25923;DHT22;13725;51.170;4.442;2023-03-19T09:53:55;17.30;99.90
25923;DHT22;13725;51.170;4.442;2023-03-19T09:56:23;17.00;99.90
25923;DHT22;13725;51.170;4.442;2023-03-19T09:58:49;16.60;99.90
25923;DHT22;13725;51.170;4.442;2023-03-19T10:01:35;16.30;99.90
25923;DHT22;13725;51.170;4.442;2023-03-19T10:07:05;15.90;99.90
25923;DHT22;13725;51.170;4.442;2023-03-19T10:09:43;15.60;99.90
25923;DHT22;13725;51.170;4.442;2023-03-19T10:15:16;15.20;99.90
25923;DHT22;13725;51.170;4.442;2023-03-19T10:20:54;14.90;99.90
25923;DHT22;13725;51.170;4.442;2023-03-19T10:23:43;14.90;99.90
25923;DHT22;13725;51.170;4.442;2023-03-19T10:26:23;14.70;99.90
25923;DHT22;13725;51.170;4.442;2023-03-19T10:29:12;14.60;99.90
25923;DHT22;13725;51.170;4.442;2023-03-19T10:34:40;14.20;99.90
25923;DHT22;13725;51.170;4.442;2023-03-19T10:39:44;14.10;99.90
25923;DHT22;13725;51.170;4.442;2023-03-19T10:42:39;14.10;99.90
25923;DHT22;13725;51.170;4.442;2023-03-19T10:47:43;14.50;99.90
25923;DHT22;13725;51.170;4.442;2023-03-19T10:50:21;14.70;99.90
25923;DHT22;13725;51.170;4.442;2023-03-19T10:52:55;14.90;99.90
25923;DHT22;13725;51.170;4.442;2023-03-19T10:55:28;15.20;99.90
25923;DHT22;13725;51.170;4.442;2023-03-19T10:58:17;15.40;99.90
25923;DHT22;13725;51.170;4.442;2023-03-19T11:00:54;15.70;99.90
25923;DHT22;13725;51.170;4.442;2023-03-19T11:03:51;16.00;99.90
25923;DHT22;13725;51.170;4.442;2023-03-19T11:08:58;17.20;99.90
25923;DHT22;13725;51.170;4.442;2023-03-19T11:16:57;17.80;99.90
25923;DHT22;13725;51.170;4.442;2023-03-19T11:19:27;17.90;99.90
25923;DHT22;13725;51.170;4.442;2023-03-19T11:22:19;17.90;99.90
25923;DHT22;13725;51.170;4.442;2023-03-19T11:25:23;18.20;99.90
25923;DHT22;13725;51.170;4.442;2023-03-19T11:35:53;22.70;99.90
25923;DHT22;13725;51.170;4.442;2023-03-19T11:41:28;22.20;99.90
25923;DHT22;13725;51.170;4.442;2023-03-19T11:44:32;22.10;99.90
25923;DHT22;13725;51.170;4.442;2023-03-19T11:47:18;22.90;99.90
25923;DHT22;13725;51.170;4.442;2023-03-19T12:00:55;20.40;99.90
25923;DHT22;13725;51.170;4.442;2023-03-19T12:03:36;20.00;99.90
25923;DHT22;13725;51.170;4.442;2023-03-19T12:09:24;19.20;99.90
25923;DHT22;13725;51.170;4.442;2023-03-19T12:14:48;20.10;99.90
25923;DHT22;13725;51.170;4.442;2023-03-19T12:22:58;20.30;99.90
25923;DHT22;13725;51.170;4.442;2023-03-19T12:25:43;19.80;99.90
25923;DHT22;13725;51.170;4.442;2023-03-19T12:28:16;19.90;99.90
25923;DHT22;13725;51.170;4.442;2023-03-19T12:36:08;20.00;99.90
25923;DHT22;13725;51.170;4.442;2023-03-19T12:38:48;20.00;99.90
25923;DHT22;13725;51.170;4.442;2023-03-19T12:41:24;20.00;99.90
25923;DHT22;13725;51.170;4.442;2023-03-19T12:44:14;20.00;99.90
25923;DHT22;13725;51.170;4.442;2023-03-19T12:47:04;19.70;99.90
25923;DHT22;13725;51.170;4.442;2023-03-19T12:49:36;19.40;99.90
25923;DHT22;13725;51.170;4.442;2023-03-19T12:54:48;19.00;99.90
25923;DHT22;13725;51.170;4.442;2023-03-19T12:57:30;18.70;99.90
25923;DHT22;13725;51.170;4.442;2023-03-19T13:00:02;18.10;99.90
25923;DHT22;13725;51.170;4.442;2023-03-19T13:07:59;17.80;99.90
25923;DHT22;13725;51.170;4.442;2023-03-19T13:10:28;17.80;99.90
25923;DHT22;13725;51.170;4.442;2023-03-19T13:12:56;17.60;99.90
25923;DHT22;13725;51.170;4.442;2023-03-19T13:15:40;17.40;99.90
25923;DHT22;13725;51.170;4.442;2023-03-19T13:21:16;17.30;99.90
25923;DHT22;13725;51.170;4.442;2023-03-19T13:23:49;17.40;99.90
25923;DHT22;13725;51.170;4.442;2023-03-19T13:26:17;17.20;99.90
25923;DHT22;13725;51.170;4.442;2023-03-19T13:31:24;17.40;99.90
25923;DHT22;13725;51.170;4.442;2023-03-19T13:36:50;20.90;99.90
25923;DHT22;13725;51.170;4.442;2023-03-19T13:39:23;21.90;99.90
25923;DHT22;13725;51.170;4.442;2023-03-19T13:42:42;22.20;99.90
25923;DHT22;13725;51.170;4.442;2023-03-19T13:44:57;22.20;99.90
25923;DHT22;13725;51.170;4.442;2023-03-19T13:52:48;20.60;99.90
25923;DHT22;13725;51.170;4.442;2023-03-19T13:55:53;20.10;99.90
25923;DHT22;13725;51.170;4.442;2023-03-19T13:58:29;19.70;99.90
25923;DHT22;13725;51.170;4.442;2023-03-19T14:04:48;18.90;99.90
25923;DHT22;13725;51.170;4.442;2023-03-19T14:09:49;18.70;99.90
25923;DHT22;13725;51.170;4.442;2023-03-19T14:14:48;17.70;99.90
25923;DHT22;13725;51.170;4.442;2023-03-19T14:17:20;17.40;99.90
25923;DHT22;13725;51.170;4.442;2023-03-19T14:19:49;16.80;99.90
25923;DHT22;13725;51.170;4.442;2023-03-19T14:24:53;15.80;99.90
25923;DHT22;13725;51.170;4.442;2023-03-19T14:27:26;15.60;99.90
25923;DHT22;13725;51.170;4.442;2023-03-19T14:30:01;15.40;99.90
25923;DHT22;13725;51.170;4.442;2023-03-19T14:32:35;15.20;99.90
25923;DHT22;13725;51.170;4.442;2023-03-19T14:35:05;15.20;99.90
25923;DHT22;13725;51.170;4.442;2023-03-19T14:37:43;15.20;99.90
25923;DHT22;13725;51.170;4.442;2023-03-19T14:40:17;15.10;99.90
25923;DHT22;13725;51.170;4.442;2023-03-19T14:45:37;14.60;99.90
25923;DHT22;13725;51.170;4.442;2023-03-19T14:53:23;14.00;99.90
25923;DHT22;13725;51.170;4.442;2023-03-19T14:55:51;13.80;99.90
25923;DHT22;13725;51.170;4.442;2023-03-19T14:58:21;13.70;99.90
25923;DHT22;13725;51.170;4.442;2023-03-19T15:00:52;13.60;99.90
25923;DHT22;13725;51.170;4.442;2023-03-19T15:05:56;13.60;99.90
25923;DHT22;13725;51.170;4.442;2023-03-19T15:08:23;13.60;99.90
25923;DHT22;13725;51.170;4.442;2023-03-19T15:13:57;13.60;99.90
25923;DHT22;13725;51.170;4.442;2023-03-19T15:19:29;13.60;99.90
25923;DHT22;13725;51.170;4.442;2023-03-19T15:22:16;13.50;99.90
25923;DHT22;13725;51.170;4.442;2023-03-19T15:24:44;13.50;99.90
25923;DHT22;13725;51.170;4.442;2023-03-19T15:27:36;13.40;99.90
25923;DHT22;13725;51.170;4.442;2023-03-19T15:30:17;13.20;99.90
25923;DHT22;13725;51.170;4.442;2023-03-19T15:32:44;13.20;99.90
25923;DHT22;13725;51.170;4.442;2023-03-19T15:35:09;13.30;99.90
25923;DHT22;13725;51.170;4.442;2023-03-19T15:37:44;13.20;99.90
25923;DHT22;13725;51.170;4.442;2023-03-19T15:40:13;13.20;99.90
25923;DHT22;13725;51.170;4.442;2023-03-19T15:42:42;13.20;99.90
25923;DHT22;13725;51.170;4.442;2023-03-19T15:45:12;13.20;99.90
25923;DHT22;13725;51.170;4.442;2023-03-19T15:47:50;13.30;99.90
25923;DHT22;13725;51.170;4.442;2023-03-19T15:50:22;13.20;99.90
25923;DHT22;13725;51.170;4.442;2023-03-19T15:52:51;13.20;99.90
25923;DHT22;13725;51.170;4.442;2023-03-19T15:55:18;13.20;99.90
25923;DHT22;13725;51.170;4.442;2023-03-19T15:57:46;13.10;99.90
25923;DHT22;13725;51.170;4.442;2023-03-19T16:00:13;13.20;99.90
25923;DHT22;13725;51.170;4.442;2023-03-19T16:02:41;13.10;99.90
25923;DHT22;13725;51.170;4.442;2023-03-19T16:07:59;12.80;99.90
25923;DHT22;13725;51.170;4.442;2023-03-19T16:10:32;12.80;99.90
25923;DHT22;13725;51.170;4.442;2023-03-19T16:12:58;12.70;99.90
25923;DHT22;13725;51.170;4.442;2023-03-19T16:15:42;12.90;99.90
25923;DHT22;13725;51.170;4.442;2023-03-19T16:20:41;12.90;99.90
25923;DHT22;13725;51.170;4.442;2023-03-19T16:23:15;12.70;99.90
25923;DHT22;13725;51.170;4.442;2023-03-19T16:25:45;12.50;99.90
25923;DHT22;13725;51.170;4.442;2023-03-19T16:28:19;12.40;99.90
25923;DHT22;13725;51.170;4.442;2023-03-19T16:30:49;12.30;99.90
25923;DHT22;13725;51.170;4.442;2023-03-19T16:33:16;12.40;99.90
25923;DHT22;13725;51.170;4.442;2023-03-19T16:35:44;12.50;99.90
25923;DHT22;13725;51.170;4.442;2023-03-19T16:38:13;12.50;99.90
25923;DHT22;13725;51.170;4.442;2023-03-19T16:40:43;12.50;99.90
25923;DHT22;13725;51.170;4.442;2023-03-19T16:43:19;12.40;99.90
25923;DHT22;13725;51.170;4.442;2023-03-19T16:45:50;12.30;99.90
25923;DHT22;13725;51.170;4.442;2023-03-19T16:48:17;12.30;99.90
25923;DHT22;13725;51.170;4.442;2023-03-19T16:50:43;12.20;99.90
25923;DHT22;13725;51.170;4.442;2023-03-19T16:53:24;12.20;99.90
25923;DHT22;13725;51.170;4.442;2023-03-19T16:55:54;12.20;99.90
25923;DHT22;13725;51.170;4.442;2023-03-19T16:58:38;12.20;99.90
25923;DHT22;13725;51.170;4.442;2023-03-19T17:01:15;12.10;99.90
25923;DHT22;13725;51.170;4.442;2023-03-19T17:03:41;12.10;99.90
25923;DHT22;13725;51.170;4.442;2023-03-19T17:06:10;12.10;99.90
25923;DHT22;13725;51.170;4.442;2023-03-19T17:08:36;12.10;99.90
25923;DHT22;13725;51.170;4.442;2023-03-19T17:11:02;12.10;99.90
25923;DHT22;13725;51.170;4.442;2023-03-19T17:13:29;12.00;99.90
25923;DHT22;13725;51.170;4.442;2023-03-19T17:16:05;12.00;99.90
25923;DHT22;13725;51.170;4.442;2023-03-19T17:18:33;11.80;99.90
25923;DHT22;13725;51.170;4.442;2023-03-19T17:21:12;11.70;99.90
25923;DHT22;13725;51.170;4.442;2023-03-19T17:23:39;11.80;99.90
25923;DHT22;13725;51.170;4.442;2023-03-19T17:26:25;11.70;99.90
25923;DHT22;13725;51.170;4.442;2023-03-19T17:28:51;11.70;99.90
25923;DHT22;13725;51.170;4.442;2023-03-19T17:31:27;11.80;99.90
25923;DHT22;13725;51.170;4.442;2023-03-19T17:34:08;11.50;99.90
25923;DHT22;13725;51.170;4.442;2023-03-19T17:36:34;11.40;99.90
25923;DHT22;13725;51.170;4.442;2023-03-19T17:39:00;11.30;99.90
25923;DHT22;13725;51.170;4.442;2023-03-19T17:41:30;11.30;99.90
25923;DHT22;13725;51.170;4.442;2023-03-19T17:43:58;11.30;99.90
25923;DHT22;13725;51.170;4.442;2023-03-19T17:46:26;11.30;99.90
25923;DHT22;13725;51.170;4.442;2023-03-19T17:48:53;11.30;99.90
25923;DHT22;13725;51.170;4.442;2023-03-19T17:51:21;11.30;99.90
25923;DHT22;13725;51.170;4.442;2023-03-19T17:53:53;11.40;99.90
25923;DHT22;13725;51.170;4.442;2023-03-19T17:56:22;11.50;99.90
25923;DHT22;13725;51.170;4.442;2023-03-19T17:58:50;11.40;99.90
25923;DHT22;13725;51.170;4.442;2023-03-19T18:01:18;11.20;99.90
25923;DHT22;13725;51.170;4.442;2023-03-19T18:03:47;11.30;99.90
25923;DHT22;13725;51.170;4.442;2023-03-19T18:06:18;11.30;99.90